sensor_id;sensor_type;location;lat;lon;timestamp;pressure;altitude;pressure_sealevel;temperature;humidity
46710;BME280;32442;51.514;-0.178;2023-02-03T00:02:26;102582.28;;;20.72;40.26
46710;BME280;32442;51.514;-0.178;2023-02-03T00:04:52;102590.19;;;20.75;40.24
46710;BME280;32442;51.514;-0.178;2023-02-03T00:07:19;102583.75;;;20.80;39.99
46710;BME280;32442;51.514;-0.178;2023-02-03T00:09:46;102583.22;;;20.83;40.41
46710;BME280;32442;51.514;-0.178;2023-02-03T00:12:13;102582.41;;;20.88;40.27
46710;BME280;32442;51.514;-0.178;2023-02-03T00:14:41;102594.78;;;20.92;40.20
46710;BME280;32442;51.514;-0.178;2023-02-03T00:17:08;102596.19;;;20.94;39.79
46710;BME280;32442;51.514;-0.178;2023-02-03T00:19:36;102598.75;;;20.96;40.27
46710;BME280;32442;51.514;-0.178;2023-02-03T00:22:03;102588.94;;;20.98;40.19
46710;BME280;32442;51.514;-0.178;2023-02-03T00:24:29;102595.38;;;20.99;40.20
46710;BME280;32442;51.514;-0.178;2023-02-03T00:26:56;102601.59;;;21.01;39.90
46710;BME280;32442;51.514;-0.178;2023-02-03T00:29:23;102602.19;;;21.03;40.09
46710;BME280;32442;51.514;-0.178;2023-02-03T00:31:51;102597.66;;;21.02;40.32
46710;BME280;32442;51.514;-0.178;2023-02-03T00:34:20;102601.03;;;21.04;39.94
46710;BME280;32442;51.514;-0.178;2023-02-03T00:36:47;102590.94;;;21.03;40.32
46710;BME280;32442;51.514;-0.178;2023-02-03T00:39:16;102586.97;;;21.04;40.11
46710;BME280;32442;51.514;-0.178;2023-02-03T00:41:43;102589.78;;;21.04;40.11
46710;BME280;32442;51.514;-0.178;2023-02-03T00:44:10;102592.34;;;21.05;40.38
46710;BME280;32442;51.514;-0.178;2023-02-03T00:46:37;102579.41;;;21.04;40.51
46710;BME280;32442;51.514;-0.178;2023-02-03T00:49:05;102570.13;;;21.04;40.57
46710;BME280;32442;51.514;-0.178;2023-02-03T00:51:32;102561.69;;;21.04;40.63
46710;BME280;32442;51.514;-0.178;2023-02-03T00:54:00;102558.88;;;21.04;40.61
46710;BME280;32442;51.514;-0.178;2023-02-03T00:56:27;102555.22;;;21.03;40.48
46710;BME280;32442;51.514;-0.178;2023-02-03T00:58:54;102545.97;;;21.03;40.79
46710;BME280;32442;51.514;-0.178;2023-02-03T01:01:20;102546.78;;;21.03;40.71
46710;BME280;32442;51.514;-0.178;2023-02-03T01:03:48;102558.03;;;21.03;40.47
46710;BME280;32442;51.514;-0.178;2023-02-03T01:06:17;102561.97;;;21.02;40.74
46710;BME280;32442;51.514;-0.178;2023-02-03T01:08:45;102560.53;;;21.00;40.53
46710;BME280;32442;51.514;-0.178;2023-02-03T01:11:15;102568.13;;;20.99;40.54
46710;BME280;32442;51.514;-0.178;2023-02-03T01:13:42;102568.41;;;20.98;40.68
46710;BME280;32442;51.514;-0.178;2023-02-03T01:16:10;102567.84;;;20.96;41.02
46710;BME280;32442;51.514;-0.178;2023-02-03T01:18:40;102571.75;;;20.95;40.89
46710;BME280;32442;51.514;-0.178;2023-02-03T01:21:09;102561.06;;;20.92;41.11
46710;BME280;32442;51.514;-0.178;2023-02-03T01:23:37;102566.94;;;20.90;41.42
46710;BME280;32442;51.514;-0.178;2023-02-03T01:26:05;102566.38;;;20.88;41.30
46710;BME280;32442;51.514;-0.178;2023-02-03T01:28:32;102563.84;;;20.86;41.43
46710;BME280;32442;51.514;-0.178;2023-02-03T01:33:29;102558.22;;;20.86;41.81
46710;BME280;32442;51.514;-0.178;2023-02-03T01:35:55;102563.00;;;20.86;41.61
46710;BME280;32442;51.514;-0.178;2023-02-03T01:38:26;102568.06;;;20.84;41.92
46710;BME280;32442;51.514;-0.178;2023-02-03T01:40:53;102555.13;;;20.83;41.67
46710;BME280;32442;51.514;-0.178;2023-02-03T01:45:51;102561.84;;;20.82;41.63
46710;BME280;32442;51.514;-0.178;2023-02-03T01:48:18;102571.38;;;20.81;41.71
46710;BME280;32442;51.514;-0.178;2023-02-03T01:50:45;102568.56;;;20.81;42.06
46710;BME280;32442;51.514;-0.178;2023-02-03T01:53:12;102561.00;;;20.81;42.12
46710;BME280;32442;51.514;-0.178;2023-02-03T01:55:42;102564.63;;;20.77;42.00
46710;BME280;32442;51.514;-0.178;2023-02-03T01:58:13;102557.59;;;20.74;41.89
46710;BME280;32442;51.514;-0.178;2023-02-03T02:00:42;102564.91;;;20.75;41.76
46710;BME280;32442;51.514;-0.178;2023-02-03T02:03:09;102565.44;;;20.72;41.92
46710;BME280;32442;51.514;-0.178;2023-02-03T02:08:09;102560.94;;;20.71;41.93
46710;BME280;32442;51.514;-0.178;2023-02-03T02:10:39;102554.16;;;20.67;42.51
46710;BME280;32442;51.514;-0.178;2023-02-03T02:13:06;102539.00;;;20.68;42.47
46710;BME280;32442;51.514;-0.178;2023-02-03T02:15:38;102539.84;;;20.69;42.35
46710;BME280;32442;51.514;-0.178;2023-02-03T02:30:45;102518.97;;;20.55;42.36
46710;BME280;32442;51.514;-0.178;2023-02-03T02:43:24;102558.78;;;20.47;42.74
46710;BME280;32442;51.514;-0.178;2023-02-03T02:45:55;102564.41;;;20.47;42.69
46710;BME280;32442;51.514;-0.178;2023-02-03T02:50:59;102574.47;;;20.42;42.63
46710;BME280;32442;51.514;-0.178;2023-02-03T02:53:31;102575.84;;;20.40;42.94
46710;BME280;32442;51.514;-0.178;2023-02-03T02:55:59;102569.13;;;20.41;42.64
46710;BME280;32442;51.514;-0.178;2023-02-03T02:58:30;102563.81;;;20.39;43.15
46710;BME280;32442;51.514;-0.178;2023-02-03T03:00:57;102567.97;;;20.37;43.04
46710;BME280;32442;51.514;-0.178;2023-02-03T03:03:24;102568.53;;;20.34;42.96
46710;BME280;32442;51.514;-0.178;2023-02-03T03:05:53;102569.38;;;20.34;43.27
46710;BME280;32442;51.514;-0.178;2023-02-03T03:08:24;102571.84;;;20.31;43.29
46710;BME280;32442;51.514;-0.178;2023-02-03T03:10:54;102569.03;;;20.31;43.11
46710;BME280;32442;51.514;-0.178;2023-02-03T03:13:24;102583.31;;;20.29;43.39
46710;BME280;32442;51.514;-0.178;2023-02-03T03:15:53;102581.31;;;20.25;43.56
46710;BME280;32442;51.514;-0.178;2023-02-03T03:18:23;102586.94;;;20.25;43.49
46710;BME280;32442;51.514;-0.178;2023-02-03T03:20:52;102588.03;;;20.24;43.49
46710;BME280;32442;51.514;-0.178;2023-02-03T03:25:53;102569.50;;;20.23;43.49
46710;BME280;32442;51.514;-0.178;2023-02-03T03:28:24;102570.59;;;20.22;43.10
46710;BME280;32442;51.514;-0.178;2023-02-03T03:30:53;102568.34;;;20.19;43.28
46710;BME280;32442;51.514;-0.178;2023-02-03T03:33:20;102569.44;;;20.18;43.60
46710;BME280;32442;51.514;-0.178;2023-02-03T03:40:48;102569.19;;;20.19;43.49
46710;BME280;32442;51.514;-0.178;2023-02-03T03:43:19;102568.59;;;20.17;43.59
46710;BME280;32442;51.514;-0.178;2023-02-03T03:50:46;102567.97;;;20.10;43.72
46710;BME280;32442;51.514;-0.178;2023-02-03T03:53:15;102564.31;;;20.10;43.89
46710;BME280;32442;51.514;-0.178;2023-02-03T03:55:43;102556.16;;;20.08;43.80
46710;BME280;32442;51.514;-0.178;2023-02-03T03:58:14;102557.56;;;20.06;43.69
46710;BME280;32442;51.514;-0.178;2023-02-03T04:00:42;102563.75;;;20.08;43.95
46710;BME280;32442;51.514;-0.178;2023-02-03T04:03:12;102553.66;;;20.07;43.63
46710;BME280;32442;51.514;-0.178;2023-02-03T04:05:41;102558.09;;;20.03;43.70
46710;BME280;32442;51.514;-0.178;2023-02-03T04:08:08;102557.25;;;20.02;43.63
46710;BME280;32442;51.514;-0.178;2023-02-03T04:10:36;102577.41;;;19.99;44.17
46710;BME280;32442;51.514;-0.178;2023-02-03T04:13:03;102570.69;;;20.00;44.24
46710;BME280;32442;51.514;-0.178;2023-02-03T04:15:30;102572.06;;;19.97;44.24
46710;BME280;32442;51.514;-0.178;2023-02-03T04:18:00;102578.25;;;19.99;44.14
46710;BME280;32442;51.514;-0.178;2023-02-03T04:20:29;102554.09;;;19.93;44.33
46710;BME280;32442;51.514;-0.178;2023-02-03T04:22:57;102558.00;;;19.92;43.91
46710;BME280;32442;51.514;-0.178;2023-02-03T04:25:24;102565.31;;;19.93;44.13
46710;BME280;32442;51.514;-0.178;2023-02-03T04:27:51;102569.78;;;19.94;44.05
46710;BME280;32442;51.514;-0.178;2023-02-03T04:30:18;102553.50;;;19.91;43.92
46710;BME280;32442;51.514;-0.178;2023-02-03T04:32:45;102562.16;;;19.90;43.84
46710;BME280;32442;51.514;-0.178;2023-02-03T04:35:12;102564.97;;;19.90;44.16
46710;BME280;32442;51.514;-0.178;2023-02-03T04:37:40;102565.25;;;19.88;43.94
46710;BME280;32442;51.514;-0.178;2023-02-03T04:40:07;102567.75;;;19.85;44.21
46710;BME280;32442;51.514;-0.178;2023-02-03T04:42:36;102583.72;;;19.84;44.12
46710;BME280;32442;51.514;-0.178;2023-02-03T04:45:04;102590.69;;;19.82;43.85
46710;BME280;32442;51.514;-0.178;2023-02-03T04:47:31;102589.84;;;19.81;43.82
46710;BME280;32442;51.514;-0.178;2023-02-03T04:49:58;102589.28;;;19.79;43.83
46710;BME280;32442;51.514;-0.178;2023-02-03T04:52:26;102596.59;;;19.80;44.06
46710;BME280;32442;51.514;-0.178;2023-02-03T04:54:53;102602.44;;;19.79;44.21
46710;BME280;32442;51.514;-0.178;2023-02-03T04:57:20;102592.00;;;19.74;44.27
46710;BME280;32442;51.514;-0.178;2023-02-03T04:59:48;102587.25;;;19.75;43.98
46710;BME280;32442;51.514;-0.178;2023-02-03T05:02:14;102594.81;;;19.74;44.28
46710;BME280;32442;51.514;-0.178;2023-02-03T05:04:42;102609.09;;;19.73;43.98
46710;BME280;32442;51.514;-0.178;2023-02-03T05:07:10;102624.56;;;19.75;43.94
46710;BME280;32442;51.514;-0.178;2023-02-03T05:09:36;102626.22;;;19.71;44.06
46710;BME280;32442;51.514;-0.178;2023-02-03T05:12:04;102612.44;;;19.70;44.28
46710;BME280;32442;51.514;-0.178;2023-02-03T05:14:32;102625.84;;;19.68;44.31
46710;BME280;32442;51.514;-0.178;2023-02-03T05:16:58;102608.19;;;19.67;44.16
46710;BME280;32442;51.514;-0.178;2023-02-03T05:19:26;102616.03;;;19.65;44.17
46710;BME280;32442;51.514;-0.178;2023-02-03T05:21:54;102603.09;;;19.64;44.62
46710;BME280;32442;51.514;-0.178;2023-02-03T05:24:20;102608.72;;;19.64;44.66
46710;BME280;32442;51.514;-0.178;2023-02-03T05:26:47;102614.00;;;19.61;44.71
46710;BME280;32442;51.514;-0.178;2023-02-03T05:29:14;102623.25;;;19.61;44.33
46710;BME280;32442;51.514;-0.178;2023-02-03T05:31:41;102632.78;;;19.60;44.48
46710;BME280;32442;51.514;-0.178;2023-02-03T05:34:07;102639.25;;;19.61;44.46
46710;BME280;32442;51.514;-0.178;2023-02-03T05:36:35;102632.19;;;19.58;44.52
46710;BME280;32442;51.514;-0.178;2023-02-03T05:39:02;102633.03;;;19.59;44.83
46710;BME280;32442;51.514;-0.178;2023-02-03T05:41:29;102631.38;;;19.58;44.55
46710;BME280;32442;51.514;-0.178;2023-02-03T05:44:00;102637.78;;;19.58;44.44
46710;BME280;32442;51.514;-0.178;2023-02-03T05:46:27;102648.50;;;19.61;44.91
46710;BME280;32442;51.514;-0.178;2023-02-03T05:48:54;102644.00;;;19.60;45.11
46710;BME280;32442;51.514;-0.178;2023-02-03T05:51:21;102644.00;;;19.60;45.15
46710;BME280;32442;51.514;-0.178;2023-02-03T05:53:48;102644.63;;;19.67;45.43
46710;BME280;32442;51.514;-0.178;2023-02-03T05:56:14;102645.56;;;19.73;45.29
46710;BME280;32442;51.514;-0.178;2023-02-03T05:58:42;102642.81;;;19.78;45.52
46710;BME280;32442;51.514;-0.178;2023-02-03T06:01:09;102642.03;;;19.82;45.32
46710;BME280;32442;51.514;-0.178;2023-02-03T06:03:37;102646.84;;;19.87;45.58
46710;BME280;32442;51.514;-0.178;2023-02-03T06:06:04;102642.16;;;19.92;45.26
46710;BME280;32442;51.514;-0.178;2023-02-03T06:08:31;102638.56;;;19.97;45.41
46710;BME280;32442;51.514;-0.178;2023-02-03T06:10:59;102639.47;;;20.03;45.34
46710;BME280;32442;51.514;-0.178;2023-02-03T06:13:26;102644.00;;;20.09;45.26
46710;BME280;32442;51.514;-0.178;2023-02-03T06:15:53;102648.56;;;20.15;45.11
46710;BME280;32442;51.514;-0.178;2023-02-03T06:18:20;102643.28;;;20.18;45.28
46710;BME280;32442;51.514;-0.178;2023-02-03T06:20:48;102653.69;;;20.23;45.20
46710;BME280;32442;51.514;-0.178;2023-02-03T06:23:16;102656.56;;;20.28;45.18
46710;BME280;32442;51.514;-0.178;2023-02-03T06:25:46;102665.91;;;20.33;45.40
46710;BME280;32442;51.514;-0.178;2023-02-03T06:28:13;102674.41;;;20.38;45.64
46710;BME280;32442;51.514;-0.178;2023-02-03T06:30:41;102666.88;;;20.44;44.96
46710;BME280;32442;51.514;-0.178;2023-02-03T06:33:08;102665.78;;;20.50;45.33
46710;BME280;32442;51.514;-0.178;2023-02-03T06:35:35;102661.34;;;20.54;44.84
46710;BME280;32442;51.514;-0.178;2023-02-03T06:38:02;102656.88;;;20.58;44.74
46710;BME280;32442;51.514;-0.178;2023-02-03T06:40:28;102654.13;;;20.63;45.06
46710;BME280;32442;51.514;-0.178;2023-02-03T06:42:56;102656.97;;;20.68;44.79
46710;BME280;32442;51.514;-0.178;2023-02-03T06:45:23;102660.09;;;20.72;44.59
46710;BME280;32442;51.514;-0.178;2023-02-03T06:47:50;102661.22;;;20.76;44.23
46710;BME280;32442;51.514;-0.178;2023-02-03T06:50:17;102664.38;;;20.79;44.21
46710;BME280;32442;51.514;-0.178;2023-02-03T06:52:44;102665.53;;;20.83;44.13
46710;BME280;32442;51.514;-0.178;2023-02-03T06:55:12;102673.41;;;20.86;43.92
46710;BME280;32442;51.514;-0.178;2023-02-03T07:00:10;102676.28;;;20.92;43.51
46710;BME280;32442;51.514;-0.178;2023-02-03T07:02:42;102684.16;;;20.95;43.54
46710;BME280;32442;51.514;-0.178;2023-02-03T07:05:09;102684.16;;;20.95;43.40
46710;BME280;32442;51.514;-0.178;2023-02-03T07:07:36;102682.78;;;20.97;43.56
46710;BME280;32442;51.514;-0.178;2023-02-03T07:10:05;102690.66;;;21.00;43.50
46710;BME280;32442;51.514;-0.178;2023-02-03T07:12:32;102695.72;;;21.03;43.29
46710;BME280;32442;51.514;-0.178;2023-02-03T07:14:59;102702.22;;;21.04;43.38
46710;BME280;32442;51.514;-0.178;2023-02-03T07:17:25;102704.50;;;21.07;43.38
46710;BME280;32442;51.514;-0.178;2023-02-03T07:19:52;102698.88;;;21.07;43.41
46710;BME280;32442;51.514;-0.178;2023-02-03T07:22:20;102700.53;;;21.08;43.12
46710;BME280;32442;51.514;-0.178;2023-02-03T07:24:48;102707.88;;;21.09;43.18
46710;BME280;32442;51.514;-0.178;2023-02-03T07:27:15;102701.41;;;21.08;42.78
46710;BME280;32442;51.514;-0.178;2023-02-03T07:29:42;102707.31;;;21.07;43.00
46710;BME280;32442;51.514;-0.178;2023-02-03T07:32:09;102705.03;;;21.04;42.77
46710;BME280;32442;51.514;-0.178;2023-02-03T07:34:36;102701.66;;;21.02;42.61
46710;BME280;32442;51.514;-0.178;2023-02-03T07:37:03;102702.50;;;21.02;42.71
46710;BME280;32442;51.514;-0.178;2023-02-03T07:39:30;102696.53;;;20.99;42.02
46710;BME280;32442;51.514;-0.178;2023-02-03T07:41:58;102700.16;;;20.94;42.12
46710;BME280;32442;51.514;-0.178;2023-02-03T07:44:25;102707.19;;;20.92;41.99
46710;BME280;32442;51.514;-0.178;2023-02-03T07:46:52;102709.72;;;20.93;41.73
46710;BME280;32442;51.514;-0.178;2023-02-03T07:49:22;102709.41;;;20.90;41.71
46710;BME280;32442;51.514;-0.178;2023-02-03T07:51:49;102716.41;;;20.87;41.91
46710;BME280;32442;51.514;-0.178;2023-02-03T07:54:17;102715.34;;;20.93;41.76
46710;BME280;32442;51.514;-0.178;2023-02-03T07:56:44;102724.28;;;20.90;41.58
46710;BME280;32442;51.514;-0.178;2023-02-03T07:59:12;102733.31;;;20.92;41.50
46710;BME280;32442;51.514;-0.178;2023-02-03T08:01:39;102726.84;;;20.92;41.89
46710;BME280;32442;51.514;-0.178;2023-02-03T08:04:06;102731.34;;;20.93;41.68
46710;BME280;32442;51.514;-0.178;2023-02-03T08:06:34;102718.72;;;20.95;41.74
46710;BME280;32442;51.514;-0.178;2023-02-03T08:09:01;102714.81;;;20.96;41.61
46710;BME280;32442;51.514;-0.178;2023-02-03T08:11:28;102705.25;;;20.97;41.85
46710;BME280;32442;51.514;-0.178;2023-02-03T08:13:58;102705.81;;;20.99;41.36
46710;BME280;32442;51.514;-0.178;2023-02-03T08:16:24;102714.00;;;21.01;41.45
46710;BME280;32442;51.514;-0.178;2023-02-03T08:18:53;102712.59;;;21.03;41.56
46710;BME280;32442;51.514;-0.178;2023-02-03T08:21:19;102716.00;;;21.05;41.32
46710;BME280;32442;51.514;-0.178;2023-02-03T08:23:48;102710.13;;;21.07;41.29
46710;BME280;32442;51.514;-0.178;2023-02-03T08:26:15;102721.66;;;21.10;41.63
46710;BME280;32442;51.514;-0.178;2023-02-03T08:28:46;102723.63;;;21.10;41.70
46710;BME280;32442;51.514;-0.178;2023-02-03T08:31:14;102726.25;;;21.16;41.34
46710;BME280;32442;51.514;-0.178;2023-02-03T08:33:41;102739.69;;;20.82;39.91
46710;BME280;32442;51.514;-0.178;2023-02-03T08:36:09;102738.09;;;20.92;40.81
46710;BME280;32442;51.514;-0.178;2023-02-03T08:38:37;102743.22;;;21.00;41.07
46710;BME280;32442;51.514;-0.178;2023-02-03T08:43:34;102742.69;;;21.03;40.99
46710;BME280;32442;51.514;-0.178;2023-02-03T08:46:03;102744.38;;;21.04;41.07
46710;BME280;32442;51.514;-0.178;2023-02-03T08:48:30;102749.13;;;21.03;40.96
46710;BME280;32442;51.514;-0.178;2023-02-03T08:50:57;102753.66;;;21.04;40.66
46710;BME280;32442;51.514;-0.178;2023-02-03T08:53:24;102766.59;;;21.05;41.01
46710;BME280;32442;51.514;-0.178;2023-02-03T08:55:51;102757.91;;;21.07;40.63
46710;BME280;32442;51.514;-0.178;2023-02-03T08:58:18;102763.22;;;21.08;41.10
46710;BME280;32442;51.514;-0.178;2023-02-03T09:00:45;102765.78;;;21.10;40.84
46710;BME280;32442;51.514;-0.178;2023-02-03T09:03:15;102764.94;;;21.09;40.73
46710;BME280;32442;51.514;-0.178;2023-02-03T09:05:42;102754.53;;;21.10;41.08
46710;BME280;32442;51.514;-0.178;2023-02-03T09:08:10;102760.41;;;21.08;41.10
46710;BME280;32442;51.514;-0.178;2023-02-03T09:10:37;102765.75;;;21.05;40.72
46710;BME280;32442;51.514;-0.178;2023-02-03T09:13:04;102768.56;;;21.05;41.14
46710;BME280;32442;51.514;-0.178;2023-02-03T09:15:31;102771.91;;;21.02;41.13
46710;BME280;32442;51.514;-0.178;2023-02-03T09:17:59;102777.63;;;21.12;40.97
46710;BME280;32442;51.514;-0.178;2023-02-03T09:20:25;102784.69;;;21.14;43.66
46710;BME280;32442;51.514;-0.178;2023-02-03T09:22:54;102783.75;;;21.09;44.35
46710;BME280;32442;51.514;-0.178;2023-02-03T09:25:24;102787.66;;;21.03;43.80
46710;BME280;32442;51.514;-0.178;2023-02-03T09:27:51;102790.47;;;21.03;43.11
46710;BME280;32442;51.514;-0.178;2023-02-03T09:30:20;102796.66;;;21.05;42.99
46710;BME280;32442;51.514;-0.178;2023-02-03T09:32:51;102794.09;;;21.03;42.85
46710;BME280;32442;51.514;-0.178;2023-02-03T09:35:19;102791.03;;;21.05;42.69
46710;BME280;32442;51.514;-0.178;2023-02-03T09:37:46;102789.63;;;21.02;42.22
46710;BME280;32442;51.514;-0.178;2023-02-03T09:47:42;102803.19;;;20.83;42.41
46710;BME280;32442;51.514;-0.178;2023-02-03T09:50:12;102817.75;;;20.80;42.59
46710;BME280;32442;51.514;-0.178;2023-02-03T09:52:40;102821.78;;;20.90;41.86
46710;BME280;32442;51.514;-0.178;2023-02-03T09:57:41;102843.63;;;20.82;42.29
46710;BME280;32442;51.514;-0.178;2023-02-03T10:02:45;102853.47;;;20.80;42.02
46710;BME280;32442;51.514;-0.178;2023-02-03T10:12:49;102874.34;;;20.89;42.13
46710;BME280;32442;51.514;-0.178;2023-02-03T10:17:51;102881.38;;;20.92;41.93
46710;BME280;32442;51.514;-0.178;2023-02-03T10:20:21;102891.00;;;20.96;42.28
46710;BME280;32442;51.514;-0.178;2023-02-03T10:22:50;102889.34;;;21.00;41.73
46710;BME280;32442;51.514;-0.178;2023-02-03T10:25:19;102890.50;;;21.04;41.88
46710;BME280;32442;51.514;-0.178;2023-02-03T10:27:51;102889.16;;;21.06;41.84
46710;BME280;32442;51.514;-0.178;2023-02-03T10:30:22;102893.69;;;21.12;42.02
46710;BME280;32442;51.514;-0.178;2023-02-03T10:32:50;102888.44;;;21.16;41.60
46710;BME280;32442;51.514;-0.178;2023-02-03T10:35:20;102883.13;;;21.19;41.37
46710;BME280;32442;51.514;-0.178;2023-02-03T10:37:50;102892.97;;;21.22;41.36
46710;BME280;32442;51.514;-0.178;2023-02-03T10:40:21;102892.47;;;21.25;41.80
46710;BME280;32442;51.514;-0.178;2023-02-03T10:42:50;102904.88;;;21.29;41.25
46710;BME280;32442;51.514;-0.178;2023-02-03T10:45:24;102899.31;;;21.34;41.53
46710;BME280;32442;51.514;-0.178;2023-02-03T10:47:51;102909.47;;;21.40;41.14
46710;BME280;32442;51.514;-0.178;2023-02-03T10:50:22;102902.19;;;21.44;41.28
46710;BME280;32442;51.514;-0.178;2023-02-03T10:52:50;102906.44;;;21.47;41.21
46710;BME280;32442;51.514;-0.178;2023-02-03T10:57:47;102899.47;;;21.54;41.13
46710;BME280;32442;51.514;-0.178;2023-02-03T11:08:31;102908.56;;;21.61;40.64
46710;BME280;32442;51.514;-0.178;2023-02-03T11:13:29;102910.56;;;21.66;40.49
46710;BME280;32442;51.514;-0.178;2023-02-03T11:20:58;102905.25;;;21.69;40.87
46710;BME280;32442;51.514;-0.178;2023-02-03T11:23:27;102908.34;;;21.73;40.40
46710;BME280;32442;51.514;-0.178;2023-02-03T11:25:54;102914.84;;;21.73;40.63
46710;BME280;32442;51.514;-0.178;2023-02-03T11:28:26;102920.22;;;21.75;40.35
46710;BME280;32442;51.514;-0.178;2023-02-03T11:30:55;102904.19;;;21.76;40.68
46710;BME280;32442;51.514;-0.178;2023-02-03T11:33:23;102902.47;;;21.74;40.65
46710;BME280;32442;51.514;-0.178;2023-02-03T11:35:57;102898.56;;;21.76;40.47
46710;BME280;32442;51.514;-0.178;2023-02-03T11:38:27;102899.97;;;21.78;40.21
46710;BME280;32442;51.514;-0.178;2023-02-03T11:40:57;102906.69;;;21.77;40.42
46710;BME280;32442;51.514;-0.178;2023-02-03T11:43:25;102906.44;;;21.79;39.87
46710;BME280;32442;51.514;-0.178;2023-02-03T11:48:28;102915.44;;;21.81;39.79
46710;BME280;32442;51.514;-0.178;2023-02-03T12:20:53;102907.72;;;21.61;40.51
46710;BME280;32442;51.514;-0.178;2023-02-03T12:31:01;102892.44;;;21.52;40.48
46710;BME280;32442;51.514;-0.178;2023-02-03T12:33:39;102903.69;;;21.52;40.32
46710;BME280;32442;51.514;-0.178;2023-02-03T12:36:11;102903.44;;;21.58;40.21
46710;BME280;32442;51.514;-0.178;2023-02-03T12:38:43;102898.72;;;21.64;40.28
46710;BME280;32442;51.514;-0.178;2023-02-03T12:41:12;102898.47;;;21.65;40.39
46710;BME280;32442;51.514;-0.178;2023-02-03T12:43:42;102895.66;;;21.65;40.18
46710;BME280;32442;51.514;-0.178;2023-02-03T12:46:17;102897.91;;;21.68;40.42
46710;BME280;32442;51.514;-0.178;2023-02-03T12:48:49;102905.81;;;21.71;40.37
46710;BME280;32442;51.514;-0.178;2023-02-03T12:51:23;102905.84;;;21.77;40.38
46710;BME280;32442;51.514;-0.178;2023-02-03T12:53:56;102910.09;;;21.79;40.19
46710;BME280;32442;51.514;-0.178;2023-02-03T12:56:25;102900.56;;;21.80;40.16
46710;BME280;32442;51.514;-0.178;2023-02-03T12:58:57;102911.00;;;21.85;40.14
46710;BME280;32442;51.514;-0.178;2023-02-03T13:04:02;102908.75;;;21.87;39.86
46710;BME280;32442;51.514;-0.178;2023-02-03T13:11:32;102916.72;;;21.95;40.01
46710;BME280;32442;51.514;-0.178;2023-02-03T13:14:02;102918.16;;;21.97;40.07
46710;BME280;32442;51.514;-0.178;2023-02-03T13:16:37;102910.28;;;21.99;39.88
46710;BME280;32442;51.514;-0.178;2023-02-03T13:19:12;102903.28;;;22.02;39.83
46710;BME280;32442;51.514;-0.178;2023-02-03T13:21:41;102896.25;;;22.04;39.76
46710;BME280;32442;51.514;-0.178;2023-02-03T13:24:09;102910.91;;;22.06;39.75
46710;BME280;32442;51.514;-0.178;2023-02-03T13:26:40;102907.53;;;22.09;39.68
46710;BME280;32442;51.514;-0.178;2023-02-03T13:29:19;102910.66;;;22.13;39.71
46710;BME280;32442;51.514;-0.178;2023-02-03T13:41:50;102889.53;;;22.10;39.36
46710;BME280;32442;51.514;-0.178;2023-02-03T13:44:20;102893.72;;;22.08;39.67
46710;BME280;32442;51.514;-0.178;2023-02-03T13:46:50;102889.75;;;22.04;39.78
46710;BME280;32442;51.514;-0.178;2023-02-03T13:49:20;102892.56;;;22.04;39.86
46710;BME280;32442;51.514;-0.178;2023-02-03T13:51:49;102893.97;;;22.01;39.76
46710;BME280;32442;51.514;-0.178;2023-02-03T14:01:50;102893.38;;;21.99;39.59
46710;BME280;32442;51.514;-0.178;2023-02-03T14:06:54;102891.31;;;21.90;40.09
46710;BME280;32442;51.514;-0.178;2023-02-03T14:12:11;102899.47;;;21.86;39.75
46710;BME280;32442;51.514;-0.178;2023-02-03T14:14:42;102908.19;;;21.85;40.16
46710;BME280;32442;51.514;-0.178;2023-02-03T14:22:15;102905.34;;;21.80;39.82
46710;BME280;32442;51.514;-0.178;2023-02-03T14:24:44;102905.34;;;21.80;39.80
46710;BME280;32442;51.514;-0.178;2023-02-03T14:29:42;102902.19;;;21.76;40.34
46710;BME280;32442;51.514;-0.178;2023-02-03T14:32:11;102903.00;;;21.71;39.98
46710;BME280;32442;51.514;-0.178;2023-02-03T14:34:39;102907.22;;;21.69;40.18
46710;BME280;32442;51.514;-0.178;2023-02-03T14:37:09;102911.97;;;21.68;40.00
46710;BME280;32442;51.514;-0.178;2023-02-03T14:49:36;102912.75;;;21.59;40.53
46710;BME280;32442;51.514;-0.178;2023-02-03T14:59:44;102935.44;;;21.47;40.73
46710;BME280;32442;51.514;-0.178;2023-02-03T15:02:15;102932.00;;;21.45;40.35
46710;BME280;32442;51.514;-0.178;2023-02-03T15:04:45;102932.88;;;21.46;40.57
46710;BME280;32442;51.514;-0.178;2023-02-03T15:09:44;102932.56;;;21.42;40.40
46710;BME280;32442;51.514;-0.178;2023-02-03T15:14:44;102922.66;;;21.35;40.63
46710;BME280;32442;51.514;-0.178;2023-02-03T15:19:44;102935.88;;;21.34;40.71
46710;BME280;32442;51.514;-0.178;2023-02-03T15:24:41;102921.75;;;21.29;40.68
46710;BME280;32442;51.514;-0.178;2023-02-03T15:27:18;102926.25;;;21.30;40.88
46710;BME280;32442;51.514;-0.178;2023-02-03T15:29:47;102930.44;;;21.27;40.71
46710;BME280;32442;51.514;-0.178;2023-02-03T15:34:45;102940.56;;;21.28;40.97
46710;BME280;32442;51.514;-0.178;2023-02-03T15:37:16;102941.50;;;21.34;41.04
46710;BME280;32442;51.514;-0.178;2023-02-03T15:42:21;102949.91;;;21.34;41.39
46710;BME280;32442;51.514;-0.178;2023-02-03T15:47:22;102952.88;;;21.22;41.45
46710;BME280;32442;51.514;-0.178;2023-02-03T15:52:23;102952.56;;;21.19;41.19
46710;BME280;32442;51.514;-0.178;2023-02-03T15:55:01;102955.38;;;21.19;40.80
46710;BME280;32442;51.514;-0.178;2023-02-03T15:57:31;102958.72;;;21.16;40.79
46710;BME280;32442;51.514;-0.178;2023-02-03T16:00:01;102960.38;;;21.17;41.19
46710;BME280;32442;51.514;-0.178;2023-02-03T16:02:32;102967.72;;;21.18;40.86
46710;BME280;32442;51.514;-0.178;2023-02-03T16:07:30;102968.31;;;21.20;40.76
46710;BME280;32442;51.514;-0.178;2023-02-03T16:09:57;102970.59;;;21.23;41.16
46710;BME280;32442;51.514;-0.178;2023-02-03T16:14:57;102970.13;;;21.31;40.64
46710;BME280;32442;51.514;-0.178;2023-02-03T16:17:27;102979.47;;;21.37;40.81
46710;BME280;32442;51.514;-0.178;2023-02-03T16:22:25;102978.41;;;21.43;40.69